createdAt,value
2023-01-21T00:00:44.106Z,85.72
2023-01-21T00:03:13.039Z,77.53
2023-01-21T00:05:40.031Z,72.78
2023-01-21T00:08:06.797Z,65.40
2023-01-21T00:10:33.830Z,90.40
2023-01-21T00:13:00.654Z,82.32
2023-01-21T00:15:27.564Z,77.93
2023-01-21T00:17:54.512Z,80.30
2023-01-21T00:20:21.397Z,76.00
2023-01-21T00:22:48.416Z,81.75
2023-01-21T00:25:15.260Z,75.40
2023-01-21T00:27:42.066Z,78.45
2023-01-21T00:30:10.729Z,79.05
2023-01-21T00:32:37.649Z,74.95
2023-01-21T00:35:06.033Z,83.32
2023-01-21T00:37:32.825Z,78.05
2023-01-21T00:39:59.678Z,75.38
2023-01-21T00:42:27.988Z,87.50
2023-01-21T00:44:57.399Z,76.43
2023-01-21T00:47:24.822Z,79.40
2023-01-21T00:49:51.631Z,76.30
2023-01-21T00:52:18.492Z,82.35
2023-01-21T00:54:45.380Z,77.40
2023-01-21T00:57:13.841Z,83.68
2023-01-21T00:59:40.906Z,85.50
2023-01-21T01:02:09.477Z,81.38
2023-01-21T01:04:36.389Z,91.00
2023-01-21T01:07:03.715Z,87.47
2023-01-21T01:09:30.833Z,89.18
2023-01-21T01:11:57.664Z,86.18
2023-01-21T01:14:24.486Z,90.22
2023-01-21T01:16:51.251Z,83.68
2023-01-21T01:19:18.417Z,92.60
2023-01-21T01:21:45.246Z,94.57
2023-01-21T01:24:12.229Z,87.40
2023-01-21T01:26:41.866Z,93.20
2023-01-21T01:29:13.564Z,81.68
2023-01-21T01:31:40.471Z,85.78
2023-01-21T01:34:07.568Z,88.63
2023-01-21T01:36:34.407Z,89.97
2023-01-21T01:39:01.490Z,89.05
2023-01-21T01:41:29.990Z,91.63
2023-01-21T01:44:04.900Z,91.03
2023-01-21T01:46:34.837Z,92.78
2023-01-21T01:49:15.545Z,83.07
2023-01-21T01:51:53.955Z,90.55
2023-01-21T01:54:26.798Z,81.88
2023-01-21T01:56:57.135Z,80.57
2023-01-21T01:59:24.633Z,78.88
2023-01-21T02:01:51.652Z,88.78
2023-01-21T02:04:22.256Z,82.32
2023-01-21T02:06:52.332Z,78.85
2023-01-21T02:09:19.367Z,79.38
2023-01-21T02:11:46.290Z,77.32
2023-01-21T02:14:13.215Z,79.22
2023-01-21T02:16:51.988Z,75.78
2023-01-21T02:19:43.070Z,82.03
2023-01-21T02:22:28.035Z,75.97
2023-01-21T02:25:15.758Z,87.35
2023-01-21T02:28:03.848Z,88.35
2023-01-21T02:31:04.797Z,84.72
2023-01-21T02:33:52.916Z,79.80
2023-01-21T02:36:22.700Z,75.13
2023-01-21T02:39:03.427Z,76.53
2023-01-21T02:41:56.559Z,71.97
2023-01-21T02:44:57.019Z,87.30
2023-01-21T02:47:29.516Z,73.07
2023-01-21T02:50:07.050Z,82.60
2023-01-21T02:52:34.118Z,80.03
2023-01-21T02:55:02.288Z,83.93
2023-01-21T02:57:47.386Z,84.00
2023-01-21T03:00:21.099Z,78.78
2023-01-21T03:03:12.261Z,82.15
2023-01-21T03:05:57.764Z,79.22
2023-01-21T03:08:38.636Z,86.87
2023-01-21T03:11:19.997Z,80.90
2023-01-21T03:14:19.038Z,77.72
2023-01-21T03:16:59.928Z,75.20
2023-01-21T03:20:04.853Z,70.03
2023-01-21T03:22:35.411Z,84.05
2023-01-21T03:25:04.262Z,85.00
2023-01-21T03:27:32.682Z,109.63
2023-01-21T03:30:21.435Z,76.88
2023-01-21T03:32:51.437Z,86.00
2023-01-21T03:35:25.579Z,77.03
2023-01-21T03:38:17.152Z,78.25
2023-01-21T03:41:07.714Z,73.10
2023-01-21T03:43:34.724Z,64.75
2023-01-21T03:46:06.860Z,70.32
2023-01-21T03:48:42.405Z,68.30
2023-01-21T03:51:18.657Z,65.97
2023-01-21T03:53:45.857Z,78.35
2023-01-21T03:56:14.007Z,73.78
2023-01-21T03:58:40.795Z,71.63
2023-01-21T04:01:07.821Z,74.32
2023-01-21T04:03:34.653Z,68.63
2023-01-21T04:06:01.476Z,69.03
2023-01-21T04:08:28.198Z,81.43
2023-01-21T04:10:54.953Z,70.35
2023-01-21T04:13:21.722Z,65.90
2023-01-21T04:15:48.469Z,63.70
2023-01-21T04:18:15.257Z,62.30
2023-01-21T04:20:41.994Z,71.90
2023-01-21T04:23:08.730Z,78.32
2023-01-21T04:25:35.924Z,72.35
2023-01-21T04:28:02.656Z,73.13
2023-01-21T04:30:29.651Z,64.75
2023-01-21T04:32:56.487Z,69.00
2023-01-21T04:35:23.503Z,75.35
2023-01-21T04:37:50.329Z,68.82
2023-01-21T04:40:17.667Z,80.88
2023-01-21T04:42:44.760Z,72.78
2023-01-21T04:45:11.721Z,64.53
2023-01-21T04:47:44.755Z,62.85
2023-01-21T04:50:13.023Z,70.82
2023-01-21T04:52:40.491Z,64.15
2023-01-21T04:55:08.981Z,72.93
2023-01-21T04:57:36.370Z,67.30
2023-01-21T05:00:05.554Z,74.95
2023-01-21T05:02:33.068Z,70.57
2023-01-21T05:04:59.850Z,66.72
2023-01-21T05:07:26.691Z,66.50
2023-01-21T05:09:53.472Z,72.35
2023-01-21T05:12:20.217Z,71.13
2023-01-21T05:14:46.979Z,66.25
2023-01-21T05:17:13.700Z,60.45
2023-01-21T05:19:40.549Z,59.28
2023-01-21T05:22:07.530Z,63.03
2023-01-21T05:24:34.320Z,64.60
2023-01-21T05:27:01.386Z,61.60
2023-01-21T05:29:28.106Z,66.15
2023-01-21T05:31:54.953Z,61.72
2023-01-21T05:34:21.788Z,59.05
2023-01-21T05:36:48.484Z,65.72
2023-01-21T05:39:15.300Z,51.40
2023-01-21T05:41:42.049Z,62.30
2023-01-21T05:44:09.757Z,48.70
2023-01-21T05:46:36.534Z,54.30
2023-01-21T05:49:03.390Z,66.72
2023-01-21T05:51:30.187Z,59.88
2023-01-21T05:53:56.951Z,51.03
2023-01-21T05:56:23.726Z,58.50
2023-01-21T05:58:50.505Z,57.50
2023-01-21T06:01:17.266Z,56.47
2023-01-21T06:03:44.287Z,63.42
2023-01-21T06:06:11.050Z,62.05
2023-01-21T06:08:37.817Z,50.92
2023-01-21T06:11:04.668Z,52.88
2023-01-21T06:13:31.462Z,62.40
2023-01-21T06:15:58.396Z,52.72
2023-01-21T06:18:25.714Z,92.95
2023-01-21T06:20:52.475Z,56.90
2023-01-21T06:23:19.225Z,54.58
2023-01-21T06:25:46.054Z,58.60
2023-01-21T06:28:13.230Z,59.22
2023-01-21T06:30:40.248Z,58.20
2023-01-21T06:33:07.084Z,55.38
2023-01-21T06:35:33.955Z,61.25
2023-01-21T06:38:00.701Z,53.47
2023-01-21T06:40:27.487Z,58.53
2023-01-21T06:42:54.533Z,58.05
2023-01-21T06:45:21.365Z,60.53
2023-01-21T06:47:48.175Z,61.17
2023-01-21T06:50:17.277Z,48.78
2023-01-21T06:52:46.034Z,54.22
2023-01-21T06:55:13.439Z,50.05
2023-01-21T06:57:40.878Z,53.90
2023-01-21T07:00:09.055Z,55.42
2023-01-21T07:02:35.936Z,48.50
2023-01-21T07:05:03.483Z,55.05
2023-01-21T07:07:30.232Z,55.03
2023-01-21T07:09:57.032Z,59.75
2023-01-21T07:12:23.799Z,54.13
2023-01-21T07:14:50.564Z,44.60
2023-01-21T07:17:17.371Z,59.42
2023-01-21T07:19:44.196Z,50.20
2023-01-21T07:22:10.999Z,52.38
2023-01-21T07:24:37.875Z,53.97
2023-01-21T07:27:06.166Z,51.40
2023-01-21T07:29:32.977Z,57.85
2023-01-21T07:31:59.731Z,57.20
2023-01-21T07:34:26.519Z,57.20
2023-01-21T07:36:53.272Z,59.90
2023-01-21T07:39:20.033Z,66.03
2023-01-21T07:41:46.866Z,59.17
2023-01-21T07:44:13.667Z,59.65
2023-01-21T07:46:40.475Z,56.20
2023-01-21T07:49:07.537Z,52.45
2023-01-21T07:51:34.295Z,53.10
2023-01-21T07:54:01.037Z,62.47
2023-01-21T07:56:27.843Z,60.40
2023-01-21T07:58:54.995Z,58.55
2023-01-21T08:01:24.467Z,62.00
2023-01-21T08:03:52.136Z,53.53
2023-01-21T08:06:18.877Z,60.60
2023-01-21T08:08:45.621Z,56.17
2023-01-21T08:11:12.348Z,63.63
2023-01-21T08:13:39.152Z,60.25
2023-01-21T08:16:06.590Z,58.70
2023-01-21T08:18:33.435Z,59.50
2023-01-21T08:21:00.513Z,50.53
2023-01-21T08:23:27.497Z,45.78
2023-01-21T08:25:54.838Z,63.85
2023-01-21T08:28:23.004Z,64.05
2023-01-21T08:30:49.899Z,53.20
2023-01-21T08:33:16.747Z,68.25
2023-01-21T08:35:43.622Z,64.15
2023-01-21T08:38:10.468Z,56.03
2023-01-21T08:40:37.299Z,61.03
2023-01-21T08:43:04.962Z,58.50
2023-01-21T08:45:32.051Z,58.58
2023-01-21T08:47:58.840Z,56.92
2023-01-21T08:50:25.602Z,59.00
2023-01-21T08:52:53.913Z,52.60
2023-01-21T08:55:21.216Z,52.90
2023-01-21T08:57:52.028Z,56.83
2023-01-21T09:00:19.823Z,48.10
2023-01-21T09:02:46.592Z,49.17
2023-01-21T09:05:13.447Z,56.47
2023-01-21T09:07:40.193Z,55.55
2023-01-21T09:10:07.727Z,62.40
2023-01-21T09:12:34.690Z,48.92
2023-01-21T09:15:01.549Z,57.88
2023-01-21T09:17:28.369Z,58.65
2023-01-21T09:19:55.569Z,59.72
2023-01-21T09:22:22.606Z,58.42
2023-01-21T09:24:49.338Z,54.22
2023-01-21T09:27:16.066Z,54.67
2023-01-21T09:29:42.898Z,57.40
2023-01-21T09:32:09.920Z,66.88
2023-01-21T09:34:36.718Z,62.40
2023-01-21T09:37:05.169Z,59.03
2023-01-21T09:39:31.983Z,63.67
2023-01-21T09:41:58.853Z,61.03
2023-01-21T09:44:44.771Z,65.10
2023-01-21T09:47:23.299Z,58.55
2023-01-21T09:50:00.165Z,55.92
2023-01-21T09:52:43.868Z,60.92
2023-01-21T09:55:20.825Z,61.03
2023-01-21T09:57:51.252Z,72.30
2023-01-21T10:00:30.781Z,68.85
2023-01-21T10:03:35.005Z,71.18
2023-01-21T10:06:23.198Z,70.40
2023-01-21T10:09:02.210Z,58.03
2023-01-21T10:12:09.712Z,68.88
2023-01-21T10:14:59.980Z,64.20
2023-01-21T10:17:43.713Z,80.97
2023-01-21T10:20:22.294Z,63.83
2023-01-21T10:23:06.633Z,54.33
2023-01-21T10:25:36.061Z,70.47
2023-01-21T10:28:22.456Z,69.60
2023-01-21T10:33:26.731Z,71.72
2023-01-21T10:36:02.299Z,71.60
2023-01-21T10:38:32.035Z,54.08
2023-01-21T10:41:20.870Z,60.25
2023-01-21T10:43:54.205Z,63.78
2023-01-21T10:46:42.978Z,62.25
2023-01-21T10:49:34.868Z,66.20
2023-01-21T10:52:12.618Z,66.53
2023-01-21T10:54:39.397Z,60.72
2023-01-21T10:57:31.081Z,74.53
2023-01-21T11:00:01.453Z,66.32
2023-01-21T11:02:31.988Z,75.00
2023-01-21T11:05:02.290Z,75.20
2023-01-21T11:07:34.916Z,77.55
2023-01-21T11:10:03.759Z,82.03
2023-01-21T11:12:30.721Z,61.63
2023-01-21T11:14:59.069Z,60.05
2023-01-21T11:17:47.207Z,74.82
2023-01-21T11:20:27.825Z,73.43
2023-01-21T11:22:54.672Z,81.35
2023-01-21T11:25:33.348Z,81.47
2023-01-21T11:28:00.250Z,80.18
2023-01-21T11:30:48.321Z,82.28
2023-01-21T11:33:19.586Z,88.90
2023-01-21T11:35:46.736Z,69.63
2023-01-21T11:38:34.368Z,78.97
2023-01-21T11:41:11.503Z,82.22
2023-01-21T11:43:52.177Z,74.82
2023-01-21T11:46:41.398Z,80.95
2023-01-21T11:49:08.109Z,69.70
2023-01-21T11:51:38.924Z,85.00
2023-01-21T11:54:23.229Z,89.47
2023-01-21T11:57:01.209Z,91.80
2023-01-21T11:59:45.392Z,79.55
2023-01-21T12:02:34.609Z,79.15
2023-01-21T12:05:11.308Z,75.57
2023-01-21T12:07:41.492Z,87.22
2023-01-21T12:10:17.556Z,81.80
2023-01-21T12:12:47.496Z,84.10
2023-01-21T12:15:27.137Z,88.25
2023-01-21T12:18:05.798Z,75.18
2023-01-21T12:20:55.021Z,80.93
2023-01-21T12:23:57.721Z,101.07
2023-01-21T12:26:36.581Z,95.95
2023-01-21T12:29:29.261Z,80.85
2023-01-21T12:32:21.042Z,80.45
2023-01-21T12:35:33.311Z,74.68
2023-01-21T12:38:06.292Z,91.78
2023-01-21T12:40:57.310Z,99.60
2023-01-21T12:43:37.761Z,77.07
2023-01-21T12:46:25.156Z,98.70
2023-01-21T12:48:57.605Z,77.28
2023-01-21T12:52:02.500Z,79.32
2023-01-21T12:54:48.684Z,86.88
2023-01-21T12:57:38.732Z,89.43
2023-01-21T13:00:05.667Z,86.57
2023-01-21T13:02:34.620Z,89.43
2023-01-21T13:05:13.465Z,86.85
2023-01-21T13:07:51.918Z,74.60
2023-01-21T13:10:34.299Z,84.28
2023-01-21T13:13:19.613Z,91.30
2023-01-21T13:15:54.394Z,73.82
2023-01-21T13:18:30.569Z,68.22
2023-01-21T13:21:06.594Z,71.07
2023-01-21T13:26:30.471Z,78.35
2023-01-21T13:29:12.190Z,55.53
2023-01-21T13:31:55.087Z,72.93
2023-01-21T13:34:49.145Z,73.82
2023-01-21T13:37:31.010Z,71.72
2023-01-21T13:40:26.945Z,74.60
2023-01-21T13:43:46.047Z,90.23
2023-01-21T13:46:56.331Z,72.32
2023-01-21T13:49:38.271Z,70.03
2023-01-21T13:52:18.845Z,83.45
2023-01-21T13:54:56.167Z,59.50
2023-01-21T13:57:29.659Z,75.43
2023-01-21T14:00:10.035Z,68.57
2023-01-21T14:02:48.748Z,68.88
2023-01-21T14:06:01.076Z,72.30
2023-01-21T14:08:49.848Z,72.10
2023-01-21T14:11:50.464Z,66.18
2023-01-21T14:15:01.723Z,72.13
2023-01-21T14:17:35.444Z,79.25
2023-01-21T14:20:42.162Z,88.57
2023-01-21T14:23:26.719Z,68.70
2023-01-21T14:26:14.974Z,64.35
2023-01-21T14:28:41.701Z,68.35
2023-01-21T14:31:18.857Z,71.20
2023-01-21T14:33:58.666Z,70.05
2023-01-21T14:37:07.997Z,64.50
2023-01-21T14:40:03.471Z,67.93
2023-01-21T14:42:50.800Z,60.97
2023-01-21T14:45:22.197Z,55.10
2023-01-21T14:47:53.082Z,60.13
2023-01-21T14:50:45.964Z,61.13
2023-01-21T14:53:19.095Z,58.55
2023-01-21T14:55:46.281Z,52.15
2023-01-21T14:58:26.094Z,56.35
2023-01-21T15:00:53.880Z,58.72
2023-01-21T15:03:28.357Z,52.15
2023-01-21T15:06:02.477Z,63.63
2023-01-21T15:08:46.136Z,57.92
2023-01-21T15:11:36.212Z,48.03
2023-01-21T15:14:22.959Z,44.97
2023-01-21T15:16:50.002Z,43.63
2023-01-21T15:19:26.369Z,37.90
2023-01-21T15:22:02.227Z,36.65
2023-01-21T15:24:40.590Z,32.15
2023-01-21T15:27:25.722Z,29.38
2023-01-21T15:29:55.389Z,33.22
2023-01-21T15:32:45.097Z,33.60
2023-01-21T15:35:29.070Z,33.38
2023-01-21T15:38:13.011Z,30.38
2023-01-21T15:40:48.741Z,29.90
2023-01-21T15:43:18.345Z,36.55
2023-01-21T15:46:19.338Z,37.30
2023-01-21T15:48:56.968Z,36.00
2023-01-21T15:51:32.790Z,37.83
2023-01-21T15:54:24.155Z,40.72
2023-01-21T15:56:56.939Z,45.78
2023-01-21T15:59:27.674Z,43.05
2023-01-21T16:02:19.104Z,42.53
2023-01-21T16:05:11.649Z,41.90
2023-01-21T16:07:41.163Z,48.25
2023-01-21T16:10:25.430Z,52.05
2023-01-21T16:13:23.904Z,56.83
2023-01-21T16:15:59.676Z,60.30
2023-01-21T16:18:59.244Z,57.75
2023-01-21T16:21:34.590Z,65.68
2023-01-21T16:24:11.558Z,96.47
2023-01-21T16:26:38.532Z,57.83
2023-01-21T16:29:11.287Z,79.80
2023-01-21T16:32:04.618Z,70.93
2023-01-21T16:34:31.403Z,89.78
2023-01-21T16:36:58.425Z,67.13
2023-01-21T16:39:26.080Z,69.47
2023-01-21T16:42:06.697Z,80.20
2023-01-21T16:44:35.196Z,68.97
2023-01-21T16:47:03.151Z,83.88
2023-01-21T16:49:30.019Z,74.15
2023-01-21T16:52:01.862Z,66.15
2023-01-21T16:54:31.257Z,63.55
2023-01-21T16:57:29.758Z,60.22
2023-01-21T16:59:58.031Z,57.47
2023-01-21T17:02:28.583Z,67.07
2023-01-21T17:04:57.883Z,85.32
2023-01-21T17:07:33.782Z,63.42
2023-01-21T17:10:05.871Z,60.38
2023-01-21T17:12:35.388Z,57.67
2023-01-21T17:15:09.391Z,53.95
2023-01-21T17:17:36.780Z,59.28
2023-01-21T17:20:04.497Z,55.72
2023-01-21T17:22:34.514Z,67.95
2023-01-21T17:25:34.793Z,60.28
2023-01-21T17:28:26.255Z,46.05
2023-01-21T17:31:14.073Z,57.67
2023-01-21T17:33:41.634Z,63.00
2023-01-21T17:36:16.261Z,61.22
2023-01-21T17:38:46.037Z,62.38
2023-01-21T17:41:27.079Z,59.35
2023-01-21T17:43:55.925Z,61.95
2023-01-21T17:46:24.500Z,55.53
2023-01-21T17:48:55.180Z,57.25
2023-01-21T17:51:30.454Z,65.47
2023-01-21T17:54:00.850Z,55.38
2023-01-21T17:56:49.833Z,64.88
2023-01-21T17:59:34.333Z,56.55
2023-01-21T18:02:02.321Z,55.17
2023-01-21T18:04:30.216Z,56.38
2023-01-21T18:06:57.926Z,62.80
2023-01-21T18:09:25.791Z,56.55
2023-01-21T18:11:55.969Z,70.38
2023-01-21T18:14:25.269Z,59.45
2023-01-21T18:16:56.630Z,58.42
2023-01-21T18:19:29.534Z,52.05
2023-01-21T18:21:56.785Z,64.25
2023-01-21T18:24:24.257Z,55.20
2023-01-21T18:26:51.876Z,72.25
2023-01-21T18:29:19.493Z,51.13
2023-01-21T18:31:48.812Z,58.17
2023-01-21T18:34:15.793Z,54.38
2023-01-21T18:36:42.803Z,44.58
2023-01-21T18:39:16.012Z,44.90
2023-01-21T18:41:43.418Z,46.78
2023-01-21T18:44:10.562Z,53.63
2023-01-21T18:46:42.249Z,78.93
2023-01-21T18:49:20.577Z,53.20
2023-01-21T18:51:47.848Z,73.10
2023-01-21T18:54:16.321Z,58.28
2023-01-21T18:56:44.185Z,48.13
2023-01-21T18:59:15.848Z,56.50
2023-01-21T19:01:43.395Z,53.88
2023-01-21T19:04:15.696Z,61.20
2023-01-21T19:06:43.131Z,61.72
2023-01-21T19:09:24.739Z,56.00
2023-01-21T19:11:52.591Z,53.65
2023-01-21T19:14:19.620Z,55.35
2023-01-21T19:16:46.907Z,53.83
2023-01-21T19:19:16.124Z,58.53
2023-01-21T19:21:43.395Z,53.10
2023-01-21T19:24:12.157Z,49.67
2023-01-21T19:26:39.461Z,41.75
2023-01-21T19:29:13.455Z,47.58
2023-01-21T19:31:40.377Z,48.40
2023-01-21T19:34:09.023Z,45.38
2023-01-21T19:36:36.009Z,46.20
2023-01-21T19:39:02.985Z,49.30
2023-01-21T19:41:30.022Z,48.38
2023-01-21T19:43:56.848Z,47.47
2023-01-21T19:46:24.111Z,48.58
2023-01-21T19:48:53.500Z,53.00
2023-01-21T19:51:20.684Z,49.92
2023-01-21T19:53:47.432Z,52.08
2023-01-21T19:56:20.545Z,44.15
2023-01-21T19:58:49.014Z,55.63
2023-01-21T20:01:15.895Z,52.78
2023-01-21T20:03:54.805Z,48.10
2023-01-21T20:06:26.632Z,61.42
2023-01-21T20:08:53.575Z,46.90
2023-01-21T20:11:20.368Z,57.92
2023-01-21T20:13:47.276Z,61.58
2023-01-21T20:16:20.996Z,51.72
2023-01-21T20:18:49.902Z,51.63
2023-01-21T20:21:17.007Z,75.30
2023-01-21T20:23:43.959Z,73.78
2023-01-21T20:26:23.140Z,78.30
2023-01-21T20:28:51.449Z,74.50
2023-01-21T20:31:18.954Z,72.40
2023-01-21T20:33:45.947Z,69.60
2023-01-21T20:36:22.415Z,82.10
2023-01-21T20:38:49.670Z,63.15
2023-01-21T20:41:16.786Z,57.08
2023-01-21T20:43:43.726Z,61.22
2023-01-21T20:46:29.183Z,57.22
2023-01-21T20:48:57.741Z,64.05
2023-01-21T20:51:25.305Z,66.97
2023-01-21T20:53:52.273Z,53.00
2023-01-21T20:56:30.734Z,76.88
2023-01-21T20:58:58.245Z,53.28
2023-01-21T21:01:26.251Z,58.40
2023-01-21T21:03:53.086Z,68.60
2023-01-21T21:06:29.497Z,57.10
2023-01-21T21:08:56.638Z,55.70
2023-01-21T21:11:23.409Z,55.42
2023-01-21T21:13:52.397Z,55.47
2023-01-21T21:16:27.760Z,56.70
2023-01-21T21:18:56.213Z,58.13
2023-01-21T21:21:23.984Z,51.85
2023-01-21T21:23:52.339Z,68.43
2023-01-21T21:26:29.172Z,69.45
2023-01-21T21:28:57.317Z,57.22
2023-01-21T21:31:25.071Z,57.95
2023-01-21T21:33:52.185Z,54.22
2023-01-21T21:36:21.166Z,60.03
2023-01-21T21:38:48.925Z,51.35
2023-01-21T21:41:36.167Z,60.53
2023-01-21T21:44:04.361Z,62.80
2023-01-21T21:46:49.798Z,54.42
2023-01-21T21:49:16.692Z,74.40
2023-01-21T21:51:45.598Z,60.10
2023-01-21T21:54:14.946Z,60.97
2023-01-21T21:56:42.541Z,61.92
2023-01-21T21:59:10.447Z,65.22
2023-01-21T22:01:37.376Z,59.13
2023-01-21T22:04:04.840Z,62.53
2023-01-21T22:06:32.240Z,78.70
2023-01-21T22:08:59.666Z,68.25
2023-01-21T22:11:27.712Z,66.28
2023-01-21T22:13:55.796Z,68.10
2023-01-21T22:16:25.278Z,69.68
2023-01-21T22:18:53.018Z,81.20
2023-01-21T22:21:25.412Z,74.82
2023-01-21T22:23:52.848Z,66.88
2023-01-21T22:26:23.290Z,68.88
2023-01-21T22:28:53.129Z,80.13
2023-01-21T22:31:22.709Z,60.38
2023-01-21T22:33:49.968Z,76.25
2023-01-21T22:36:19.600Z,104.80
2023-01-21T22:38:47.059Z,96.70
2023-01-21T22:41:15.848Z,83.75
2023-01-21T22:43:48.506Z,91.72
2023-01-21T22:46:19.231Z,77.25
2023-01-21T22:48:46.819Z,73.72
2023-01-21T22:51:16.560Z,77.50
2023-01-21T22:53:46.452Z,88.90
2023-01-21T22:56:14.672Z,85.43
2023-01-21T22:58:41.928Z,128.85
2023-01-21T23:01:19.419Z,237.05
2023-01-21T23:03:46.179Z,170.35
2023-01-21T23:06:13.056Z,293.52
2023-01-21T23:08:39.863Z,144.13
2023-01-21T23:11:08.672Z,153.57
2023-01-21T23:13:35.938Z,308.55
2023-01-21T23:16:05.455Z,171.07
2023-01-21T23:18:32.399Z,506.17
2023-01-21T23:20:59.380Z,229.75
2023-01-21T23:23:26.201Z,161.13
2023-01-21T23:25:52.979Z,235.70
2023-01-21T23:28:19.756Z,308.88
2023-01-21T23:30:47.990Z,234.80
2023-01-21T23:33:16.138Z,299.10
2023-01-21T23:35:42.989Z,314.60
2023-01-21T23:38:09.745Z,280.60
2023-01-21T23:40:36.583Z,339.50
2023-01-21T23:43:03.361Z,319.35
2023-01-21T23:45:30.109Z,340.70
2023-01-21T23:47:56.950Z,214.07
2023-01-21T23:50:23.762Z,414.25
2023-01-21T23:52:50.549Z,472.65
2023-01-21T23:55:17.455Z,308.92
2023-01-21T23:57:44.395Z,508.48
